PNM weather

Princeton Municipal Airport
Princeton, Minnesota, United States

Public forecast

Using degrees Fahrenheit for public forecast. Weather courtesy of forecast.io.

Current aviation weather report (METAR) for Princeton Municipal Airport

Retrieved 2020/02/24 02:56 UTC (22 minutes ago):

KPNM 240256Z AUTO 28005KT 10SM CLR 01/M03 A2996 RMK AO2

Closest aviation forecast (TAF) to Princeton Municipal Airport

Closest forecast is St Cloud Regional Airport, 19.0 nm (35.2 km) W. Retrieved 2020-02-24 00:22 UTC (3 hours ago):

TAF KSTC 232320Z 2400/2424 29009KT P6SM SCT250 FM240900 00000KT 5SM BR FEW150 TEMPO 2412/2414 1SM BR SCT003 FM241400 05005KT P6SM BKN150